Terminal Aerodrome Forecast
Issued by NWS Jackson, MS

Home | Current Version | Previous Version | Text Only | Print | Product List | Glossary On
Versions: 1 2 3 4 5 6 7 8 9 10 11 12 13 14 15
796
FTUS44 KJAN 271120
TAFMEI
TAF
KMEI 271120Z 2712/2812 19007KT P6SM SCT008 BKN015
     FM271500 20011KT P6SM BKN015 OVC025
     FM271800 20012G20KT P6SM VCTS BKN035 BKN050CB
     FM272300 20010KT P6SM SCT025 BKN050
     FM280900 19005KT P6SM SCT007 SCT015=

USA.gov is the U.S. government's official web portal to all federal, state and local government web resources and services.